sensor_id;sensor_type;location;lat;lon;timestamp;pressure;altitude;pressure_sealevel;temperature;humidity
60897;BME280;46749;32.932;-117.130;2023-04-25T00:01:21;101053.53;;;17.21;55.68
60897;BME280;46749;32.932;-117.130;2023-04-25T00:03:50;101050.06;;;17.22;55.46
60897;BME280;46749;32.932;-117.130;2023-04-25T00:06:16;101052.69;;;17.22;55.60
60897;BME280;46749;32.932;-117.130;2023-04-25T00:08:43;101054.47;;;17.23;55.42
60897;BME280;46749;32.932;-117.130;2023-04-25T00:11:10;101050.97;;;17.24;55.69
60897;BME280;46749;32.932;-117.130;2023-04-25T00:13:36;101052.72;;;17.23;55.50
60897;BME280;46749;32.932;-117.130;2023-04-25T00:16:02;101051.84;;;17.24;55.64
60897;BME280;46749;32.932;-117.130;2023-04-25T00:18:29;101054.50;;;17.26;55.64
60897;BME280;46749;32.932;-117.130;2023-04-25T00:20:58;101051.88;;;17.26;55.50
60897;BME280;46749;32.932;-117.130;2023-04-25T00:23:25;101055.38;;;17.26;55.54
60897;BME280;46749;32.932;-117.130;2023-04-25T00:25:51;101045.75;;;17.27;55.63
60897;BME280;46749;32.932;-117.130;2023-04-25T00:28:18;101047.50;;;17.28;55.47
60897;BME280;46749;32.932;-117.130;2023-04-25T00:30:44;101044.06;;;17.29;55.65
60897;BME280;46749;32.932;-117.130;2023-04-25T00:33:10;101042.31;;;17.30;55.62
60897;BME280;46749;32.932;-117.130;2023-04-25T00:35:36;101048.44;;;17.30;55.64
60897;BME280;46749;32.932;-117.130;2023-04-25T00:38:03;101037.94;;;17.30;55.53
60897;BME280;46749;32.932;-117.130;2023-04-25T00:40:29;101038.81;;;17.31;55.43
60897;BME280;46749;32.932;-117.130;2023-04-25T00:42:55;101037.06;;;17.31;55.45
60897;BME280;46749;32.932;-117.130;2023-04-25T00:45:21;101041.44;;;17.31;55.70
60897;BME280;46749;32.932;-117.130;2023-04-25T00:47:53;101040.59;;;17.33;55.76
60897;BME280;46749;32.932;-117.130;2023-04-25T00:50:20;101033.59;;;17.32;55.67
60897;BME280;46749;32.932;-117.130;2023-04-25T00:52:46;101037.09;;;17.34;55.59
60897;BME280;46749;32.932;-117.130;2023-04-25T00:55:13;101037.09;;;17.34;55.48
60897;BME280;46749;32.932;-117.130;2023-04-25T00:57:42;101038.88;;;17.35;55.59
60897;BME280;46749;32.932;-117.130;2023-04-25T01:00:09;101038.88;;;17.35;55.61
60897;BME280;46749;32.932;-117.130;2023-04-25T01:02:37;101035.41;;;17.36;55.45
60897;BME280;46749;32.932;-117.130;2023-04-25T01:05:03;101038.91;;;17.37;55.48
60897;BME280;46749;32.932;-117.130;2023-04-25T01:07:30;101036.28;;;17.37;55.51
60897;BME280;46749;32.932;-117.130;2023-04-25T01:09:56;101042.41;;;17.37;55.62
60897;BME280;46749;32.932;-117.130;2023-04-25T01:12:23;101038.91;;;17.38;55.48
60897;BME280;46749;32.932;-117.130;2023-04-25T01:14:50;101036.28;;;17.38;55.48
60897;BME280;46749;32.932;-117.130;2023-04-25T01:17:16;101038.03;;;17.39;55.53
60897;BME280;46749;32.932;-117.130;2023-04-25T01:19:43;101045.94;;;17.39;55.54
60897;BME280;46749;32.932;-117.130;2023-04-25T01:22:11;101051.19;;;17.39;55.60
60897;BME280;46749;32.932;-117.130;2023-04-25T01:24:38;101047.69;;;17.40;55.49
60897;BME280;46749;32.932;-117.130;2023-04-25T01:27:04;101039.81;;;17.40;55.78
60897;BME280;46749;32.932;-117.130;2023-04-25T01:29:31;101045.09;;;17.42;55.65
60897;BME280;46749;32.932;-117.130;2023-04-25T01:31:58;101051.22;;;17.42;55.72
60897;BME280;46749;32.932;-117.130;2023-04-25T01:34:25;101049.50;;;17.43;55.58
60897;BME280;46749;32.932;-117.130;2023-04-25T01:36:51;101050.38;;;17.43;55.50
60897;BME280;46749;32.932;-117.130;2023-04-25T01:39:19;101054.75;;;17.44;55.38
60897;BME280;46749;32.932;-117.130;2023-04-25T01:41:48;101051.25;;;17.44;55.49
60897;BME280;46749;32.932;-117.130;2023-04-25T01:44:15;101049.50;;;17.46;55.30
60897;BME280;46749;32.932;-117.130;2023-04-25T01:46:41;101058.28;;;17.46;55.44
60897;BME280;46749;32.932;-117.130;2023-04-25T01:49:08;101058.28;;;17.46;55.48
60897;BME280;46749;32.932;-117.130;2023-04-25T01:51:34;101054.81;;;17.47;55.55
60897;BME280;46749;32.932;-117.130;2023-04-25T01:54:00;101045.19;;;17.48;55.34
60897;BME280;46749;32.932;-117.130;2023-04-25T01:56:31;101055.69;;;17.48;55.46
60897;BME280;46749;32.932;-117.130;2023-04-25T01:58:58;101050.44;;;17.48;55.77
60897;BME280;46749;32.932;-117.130;2023-04-25T02:01:24;101054.81;;;17.49;55.50
60897;BME280;46749;32.932;-117.130;2023-04-25T02:03:50;101051.34;;;17.50;55.43
60897;BME280;46749;32.932;-117.130;2023-04-25T02:06:17;101054.84;;;17.50;55.55
60897;BME280;46749;32.932;-117.130;2023-04-25T02:08:43;101054.84;;;17.50;55.48
60897;BME280;46749;32.932;-117.130;2023-04-25T02:11:09;101055.69;;;17.49;55.45
60897;BME280;46749;32.932;-117.130;2023-04-25T02:13:35;101049.59;;;17.50;55.39
60897;BME280;46749;32.932;-117.130;2023-04-25T02:16:02;101053.97;;;17.51;55.67
60897;BME280;46749;32.932;-117.130;2023-04-25T02:18:28;101053.97;;;17.51;55.59
60897;BME280;46749;32.932;-117.130;2023-04-25T02:20:54;101046.97;;;17.52;55.73
60897;BME280;46749;32.932;-117.130;2023-04-25T02:23:21;101047.84;;;17.52;55.56
60897;BME280;46749;32.932;-117.130;2023-04-25T02:25:47;101050.47;;;17.52;55.57
60897;BME280;46749;32.932;-117.130;2023-04-25T02:28:14;101053.09;;;17.52;55.36
60897;BME280;46749;32.932;-117.130;2023-04-25T02:30:40;101050.53;;;17.54;55.78
60897;BME280;46749;32.932;-117.130;2023-04-25T02:33:06;101049.59;;;17.53;55.55
60897;BME280;46749;32.932;-117.130;2023-04-25T02:35:33;101055.78;;;17.54;55.56
60897;BME280;46749;32.932;-117.130;2023-04-25T02:37:59;101055.78;;;17.54;55.39
60897;BME280;46749;32.932;-117.130;2023-04-25T02:40:25;101054.84;;;17.53;55.46
60897;BME280;46749;32.932;-117.130;2023-04-25T02:42:51;101059.28;;;17.55;55.55
60897;BME280;46749;32.932;-117.130;2023-04-25T02:45:18;101058.41;;;17.54;55.35
60897;BME280;46749;32.932;-117.130;2023-04-25T02:47:44;101056.66;;;17.55;55.60
60897;BME280;46749;32.932;-117.130;2023-04-25T02:50:10;101055.78;;;17.54;55.50
60897;BME280;46749;32.932;-117.130;2023-04-25T02:52:37;101061.03;;;17.56;55.55
60897;BME280;46749;32.932;-117.130;2023-04-25T02:55:03;101061.91;;;17.56;55.48
60897;BME280;46749;32.932;-117.130;2023-04-25T02:57:29;101063.66;;;17.56;55.60
60897;BME280;46749;32.932;-117.130;2023-04-25T02:59:56;101061.91;;;17.56;55.47
60897;BME280;46749;32.932;-117.130;2023-04-25T03:02:22;101071.53;;;17.56;55.45
60897;BME280;46749;32.932;-117.130;2023-04-25T03:04:48;101064.53;;;17.56;55.64
60897;BME280;46749;32.932;-117.130;2023-04-25T03:07:14;101069.78;;;17.56;55.56
60897;BME280;46749;32.932;-117.130;2023-04-25T03:09:40;101070.69;;;17.57;55.37
60897;BME280;46749;32.932;-117.130;2023-04-25T03:12:07;101061.91;;;17.56;55.45
60897;BME280;46749;32.932;-117.130;2023-04-25T03:14:33;101068.06;;;17.57;55.29
60897;BME280;46749;32.932;-117.130;2023-04-25T03:16:59;101068.06;;;17.57;55.60
60897;BME280;46749;32.932;-117.130;2023-04-25T03:19:25;101068.06;;;17.57;55.54
60897;BME280;46749;32.932;-117.130;2023-04-25T03:21:52;101082.03;;;17.56;55.52
60897;BME280;46749;32.932;-117.130;2023-04-25T03:24:19;101086.41;;;17.55;55.86
60897;BME280;46749;32.932;-117.130;2023-04-25T03:26:45;101085.53;;;17.55;55.44
60897;BME280;46749;32.932;-117.130;2023-04-25T03:29:11;101084.69;;;17.56;55.50
60897;BME280;46749;32.932;-117.130;2023-04-25T03:31:37;101089.00;;;17.53;55.57
60897;BME280;46749;32.932;-117.130;2023-04-25T03:34:04;101101.28;;;17.55;55.45
60897;BME280;46749;32.932;-117.130;2023-04-25T03:36:30;101089.00;;;17.53;55.68
60897;BME280;46749;32.932;-117.130;2023-04-25T03:38:56;101096.03;;;17.55;55.56
60897;BME280;46749;32.932;-117.130;2023-04-25T03:41:23;101093.38;;;17.53;55.58
60897;BME280;46749;32.932;-117.130;2023-04-25T03:43:49;101097.78;;;17.54;55.60
60897;BME280;46749;32.932;-117.130;2023-04-25T03:46:15;101104.81;;;17.55;55.53
60897;BME280;46749;32.932;-117.130;2023-04-25T03:48:41;101102.13;;;17.53;55.28
60897;BME280;46749;32.932;-117.130;2023-04-25T03:51:08;101105.63;;;17.52;55.60
60897;BME280;46749;32.932;-117.130;2023-04-25T03:53:34;101123.13;;;17.53;55.66
60897;BME280;46749;32.932;-117.130;2023-04-25T03:56:00;101122.25;;;17.53;55.55
60897;BME280;46749;32.932;-117.130;2023-04-25T03:58:26;101117.00;;;17.53;56.00
60897;BME280;46749;32.932;-117.130;2023-04-25T04:00:52;101131.88;;;17.52;55.65
60897;BME280;46749;32.932;-117.130;2023-04-25T04:03:19;101124.88;;;17.51;55.59
60897;BME280;46749;32.932;-117.130;2023-04-25T04:05:46;101126.63;;;17.52;55.62
60897;BME280;46749;32.932;-117.130;2023-04-25T04:08:13;101138.88;;;17.52;55.64
60897;BME280;46749;32.932;-117.130;2023-04-25T04:10:39;101135.38;;;17.51;55.58
60897;BME280;46749;32.932;-117.130;2023-04-25T04:13:05;101135.38;;;17.51;55.60
60897;BME280;46749;32.932;-117.130;2023-04-25T04:15:31;101131.88;;;17.51;55.52
60897;BME280;46749;32.932;-117.130;2023-04-25T04:17:58;101141.50;;;17.52;55.61
60897;BME280;46749;32.932;-117.130;2023-04-25T04:20:29;101145.00;;;17.51;55.58
60897;BME280;46749;32.932;-117.130;2023-04-25T04:22:56;101141.50;;;17.50;55.61
60897;BME280;46749;32.932;-117.130;2023-04-25T04:25:22;101138.88;;;17.50;55.68
60897;BME280;46749;32.932;-117.130;2023-04-25T04:27:50;101142.38;;;17.51;55.61
60897;BME280;46749;32.932;-117.130;2023-04-25T04:30:22;101148.50;;;17.51;55.66
60897;BME280;46749;32.932;-117.130;2023-04-25T04:32:51;101155.50;;;17.51;55.64
60897;BME280;46749;32.932;-117.130;2023-04-25T04:35:17;101151.13;;;17.50;55.52
60897;BME280;46749;32.932;-117.130;2023-04-25T04:37:43;101159.88;;;17.50;55.51
60897;BME280;46749;32.932;-117.130;2023-04-25T04:40:11;101163.38;;;17.49;55.78
60897;BME280;46749;32.932;-117.130;2023-04-25T04:42:37;101159.00;;;17.50;55.63
60897;BME280;46749;32.932;-117.130;2023-04-25T04:45:04;101164.25;;;17.50;55.67
60897;BME280;46749;32.932;-117.130;2023-04-25T04:47:30;101169.50;;;17.50;55.73
60897;BME280;46749;32.932;-117.130;2023-04-25T04:49:58;101169.50;;;17.50;55.54
60897;BME280;46749;32.932;-117.130;2023-04-25T04:52:24;101173.00;;;17.49;55.66
60897;BME280;46749;32.932;-117.130;2023-04-25T04:54:50;101174.75;;;17.50;55.69
60897;BME280;46749;32.932;-117.130;2023-04-25T04:57:16;101178.25;;;17.49;55.61
60897;BME280;46749;32.932;-117.130;2023-04-25T04:59:43;101180.00;;;17.48;55.44
60897;BME280;46749;32.932;-117.130;2023-04-25T05:02:09;101186.09;;;17.47;55.54
60897;BME280;46749;32.932;-117.130;2023-04-25T05:04:35;101182.63;;;17.48;55.58
60897;BME280;46749;32.932;-117.130;2023-04-25T05:07:02;101183.47;;;17.47;55.84
60897;BME280;46749;32.932;-117.130;2023-04-25T05:09:28;101182.63;;;17.48;55.56
60897;BME280;46749;32.932;-117.130;2023-04-25T05:11:54;101178.22;;;17.47;55.63
60897;BME280;46749;32.932;-117.130;2023-04-25T05:14:20;101172.97;;;17.47;55.68
60897;BME280;46749;32.932;-117.130;2023-04-25T05:16:48;101173.81;;;17.46;55.65
60897;BME280;46749;32.932;-117.130;2023-04-25T05:19:14;101171.19;;;17.46;55.48
60897;BME280;46749;32.932;-117.130;2023-04-25T05:21:40;101179.06;;;17.46;55.61
60897;BME280;46749;32.932;-117.130;2023-04-25T05:24:09;101186.06;;;17.46;55.74
60897;BME280;46749;32.932;-117.130;2023-04-25T05:26:35;101179.06;;;17.46;55.64
60897;BME280;46749;32.932;-117.130;2023-04-25T05:29:01;101172.06;;;17.45;55.71
60897;BME280;46749;32.932;-117.130;2023-04-25T05:31:28;101179.03;;;17.45;55.63
60897;BME280;46749;32.932;-117.130;2023-04-25T05:33:54;101171.16;;;17.45;55.58
60897;BME280;46749;32.932;-117.130;2023-04-25T05:36:20;101167.66;;;17.44;55.61
60897;BME280;46749;32.932;-117.130;2023-04-25T05:38:47;101174.69;;;17.45;55.70
60897;BME280;46749;32.932;-117.130;2023-04-25T05:41:13;101179.03;;;17.45;55.57
60897;BME280;46749;32.932;-117.130;2023-04-25T05:43:39;101179.94;;;17.45;55.58
60897;BME280;46749;32.932;-117.130;2023-04-25T05:46:11;101172.91;;;17.44;55.57
60897;BME280;46749;32.932;-117.130;2023-04-25T05:48:37;101186.03;;;17.44;55.66
60897;BME280;46749;32.932;-117.130;2023-04-25T05:51:04;101186.94;;;17.45;55.74
60897;BME280;46749;32.932;-117.130;2023-04-25T05:53:30;101189.56;;;17.45;55.54
60897;BME280;46749;32.932;-117.130;2023-04-25T05:55:56;101191.28;;;17.44;55.47
60897;BME280;46749;32.932;-117.130;2023-04-25T05:58:22;101193.91;;;17.44;55.53
60897;BME280;46749;32.932;-117.130;2023-04-25T06:00:49;101195.66;;;17.44;55.72
60897;BME280;46749;32.932;-117.130;2023-04-25T06:03:15;101193.03;;;17.42;55.65
60897;BME280;46749;32.932;-117.130;2023-04-25T06:05:42;101193.03;;;17.42;55.72
60897;BME280;46749;32.932;-117.130;2023-04-25T06:08:09;101190.41;;;17.42;55.59
60897;BME280;46749;32.932;-117.130;2023-04-25T06:10:36;101195.59;;;17.41;55.56
60897;BME280;46749;32.932;-117.130;2023-04-25T06:13:04;101191.22;;;17.40;55.49
60897;BME280;46749;32.932;-117.130;2023-04-25T06:15:30;101187.72;;;17.39;55.58
60897;BME280;46749;32.932;-117.130;2023-04-25T06:17:58;101192.97;;;17.39;55.56
60897;BME280;46749;32.932;-117.130;2023-04-25T06:20:24;101192.06;;;17.39;55.47
60897;BME280;46749;32.932;-117.130;2023-04-25T06:22:51;101192.97;;;17.39;55.44
60897;BME280;46749;32.932;-117.130;2023-04-25T06:25:18;101186.81;;;17.39;55.41
60897;BME280;46749;32.932;-117.130;2023-04-25T06:27:44;101192.06;;;17.39;55.59
60897;BME280;46749;32.932;-117.130;2023-04-25T06:30:11;101189.44;;;17.37;55.60
60897;BME280;46749;32.932;-117.130;2023-04-25T06:32:41;101194.69;;;17.37;55.45
60897;BME280;46749;32.932;-117.130;2023-04-25T06:35:07;101187.69;;;17.36;55.65
60897;BME280;46749;32.932;-117.130;2023-04-25T06:37:33;101187.69;;;17.36;55.70
60897;BME280;46749;32.932;-117.130;2023-04-25T06:40:00;101188.56;;;17.37;55.49
60897;BME280;46749;32.932;-117.130;2023-04-25T06:42:26;101192.94;;;17.36;55.60
60897;BME280;46749;32.932;-117.130;2023-04-25T06:44:52;101196.41;;;17.35;55.58
60897;BME280;46749;32.932;-117.130;2023-04-25T06:47:18;101187.63;;;17.35;55.53
60897;BME280;46749;32.932;-117.130;2023-04-25T06:49:45;101187.63;;;17.35;55.71
60897;BME280;46749;32.932;-117.130;2023-04-25T06:52:11;101192.00;;;17.34;55.49
60897;BME280;46749;32.932;-117.130;2023-04-25T06:54:37;101196.34;;;17.32;55.58
60897;BME280;46749;32.932;-117.130;2023-04-25T06:57:03;101191.09;;;17.32;55.60
60897;BME280;46749;32.932;-117.130;2023-04-25T06:59:30;101196.34;;;17.32;55.50
60897;BME280;46749;32.932;-117.130;2023-04-25T07:01:56;101183.22;;;17.31;55.54
60897;BME280;46749;32.932;-117.130;2023-04-25T07:04:22;101181.47;;;17.31;55.52
60897;BME280;46749;32.932;-117.130;2023-04-25T07:06:48;101175.31;;;17.29;55.57
60897;BME280;46749;32.932;-117.130;2023-04-25T07:09:15;101180.59;;;17.31;55.59
60897;BME280;46749;32.932;-117.130;2023-04-25T07:11:42;101183.19;;;17.29;55.61
60897;BME280;46749;32.932;-117.130;2023-04-25T07:14:08;101184.03;;;17.28;55.75
60897;BME280;46749;32.932;-117.130;2023-04-25T07:16:34;101189.28;;;17.28;55.83
60897;BME280;46749;32.932;-117.130;2023-04-25T07:19:00;101184.03;;;17.28;55.52
60897;BME280;46749;32.932;-117.130;2023-04-25T07:21:27;101183.13;;;17.26;55.59
60897;BME280;46749;32.932;-117.130;2023-04-25T07:23:53;101182.25;;;17.25;55.44
60897;BME280;46749;32.932;-117.130;2023-04-25T07:26:19;101185.75;;;17.26;55.78
60897;BME280;46749;32.932;-117.130;2023-04-25T07:28:45;101186.63;;;17.25;55.45
60897;BME280;46749;32.932;-117.130;2023-04-25T07:31:15;101194.50;;;17.25;55.54
60897;BME280;46749;32.932;-117.130;2023-04-25T07:33:44;101190.09;;;17.24;55.42
60897;BME280;46749;32.932;-117.130;2023-04-25T07:36:11;101192.72;;;17.24;55.57
60897;BME280;46749;32.932;-117.130;2023-04-25T07:38:38;101193.59;;;17.23;55.41
60897;BME280;46749;32.932;-117.130;2023-04-25T07:41:05;101191.78;;;17.22;55.54
60897;BME280;46749;32.932;-117.130;2023-04-25T07:43:31;101186.53;;;17.22;55.71
60897;BME280;46749;32.932;-117.130;2023-04-25T07:45:57;101192.66;;;17.21;55.44
60897;BME280;46749;32.932;-117.130;2023-04-25T07:48:24;101183.03;;;17.20;55.74
60897;BME280;46749;32.932;-117.130;2023-04-25T07:50:50;101188.28;;;17.20;55.56
60897;BME280;46749;32.932;-117.130;2023-04-25T07:53:16;101190.00;;;17.19;55.54
60897;BME280;46749;32.932;-117.130;2023-04-25T07:55:44;101199.63;;;17.19;55.45
60897;BME280;46749;32.932;-117.130;2023-04-25T07:58:12;101203.13;;;17.18;55.64
60897;BME280;46749;32.932;-117.130;2023-04-25T08:00:39;101201.34;;;17.17;55.70
60897;BME280;46749;32.932;-117.130;2023-04-25T08:03:06;101210.06;;;17.16;55.73
60897;BME280;46749;32.932;-117.130;2023-04-25T08:05:32;101207.44;;;17.16;55.54
60897;BME280;46749;32.932;-117.130;2023-04-25T08:07:58;101201.28;;;17.14;55.40
60897;BME280;46749;32.932;-117.130;2023-04-25T08:10:24;101203.91;;;17.14;55.61
60897;BME280;46749;32.932;-117.130;2023-04-25T08:12:51;101197.78;;;17.13;55.46
60897;BME280;46749;32.932;-117.130;2023-04-25T08:15:17;101199.53;;;17.13;55.48
60897;BME280;46749;32.932;-117.130;2023-04-25T08:17:43;101196.91;;;17.13;55.41
60897;BME280;46749;32.932;-117.130;2023-04-25T08:20:10;101203.00;;;17.12;55.45
60897;BME280;46749;32.932;-117.130;2023-04-25T08:22:37;101196.88;;;17.10;55.47
60897;BME280;46749;32.932;-117.130;2023-04-25T08:25:04;101193.31;;;17.09;55.14
60897;BME280;46749;32.932;-117.130;2023-04-25T08:27:30;101184.56;;;17.09;55.56
60897;BME280;46749;32.932;-117.130;2023-04-25T08:29:56;101185.44;;;17.08;55.42
60897;BME280;46749;32.932;-117.130;2023-04-25T08:32:24;101189.81;;;17.07;55.45
60897;BME280;46749;32.932;-117.130;2023-04-25T08:34:50;101195.06;;;17.07;55.48
60897;BME280;46749;32.932;-117.130;2023-04-25T08:37:19;101188.94;;;17.07;55.44
60897;BME280;46749;32.932;-117.130;2023-04-25T08:39:46;101179.28;;;17.06;55.44
60897;BME280;46749;32.932;-117.130;2023-04-25T08:42:15;101174.91;;;17.05;55.40
60897;BME280;46749;32.932;-117.130;2023-04-25T08:44:41;101170.53;;;17.04;55.49
60897;BME280;46749;32.932;-117.130;2023-04-25T08:47:07;101176.66;;;17.04;55.40
60897;BME280;46749;32.932;-117.130;2023-04-25T08:49:34;101183.63;;;17.04;55.33
60897;BME280;46749;32.932;-117.130;2023-04-25T08:52:03;101181.84;;;17.03;55.35
60897;BME280;46749;32.932;-117.130;2023-04-25T08:54:31;101174.84;;;17.02;55.40
60897;BME280;46749;32.932;-117.130;2023-04-25T08:57:02;101172.22;;;17.02;55.30
60897;BME280;46749;32.932;-117.130;2023-04-25T08:59:30;101179.19;;;17.01;55.36
60897;BME280;46749;32.932;-117.130;2023-04-25T09:01:57;101182.69;;;17.00;55.45
60897;BME280;46749;32.932;-117.130;2023-04-25T09:04:23;101175.69;;;16.99;55.45
60897;BME280;46749;32.932;-117.130;2023-04-25T09:06:50;101172.19;;;16.98;55.68
60897;BME280;46749;32.932;-117.130;2023-04-25T09:09:16;101173.91;;;16.98;55.49
60897;BME280;46749;32.932;-117.130;2023-04-25T09:11:42;101168.63;;;16.96;55.33
60897;BME280;46749;32.932;-117.130;2023-04-25T09:14:17;101174.72;;;16.95;55.43
60897;BME280;46749;32.932;-117.130;2023-04-25T09:19:35;101178.22;;;16.94;55.35
60897;BME280;46749;32.932;-117.130;2023-04-25T09:22:04;101169.47;;;16.94;55.50
60897;BME280;46749;32.932;-117.130;2023-04-25T09:26:59;101151.94;;;16.91;55.44
60897;BME280;46749;32.932;-117.130;2023-04-25T09:29:34;101158.94;;;16.92;55.36
60897;BME280;46749;32.932;-117.130;2023-04-25T09:32:23;101156.31;;;16.91;55.44
60897;BME280;46749;32.932;-117.130;2023-04-25T09:34:52;101158.00;;;16.90;55.35
60897;BME280;46749;32.932;-117.130;2023-04-25T09:37:23;101150.16;;;16.90;55.46
60897;BME280;46749;32.932;-117.130;2023-04-25T09:39:52;101151.88;;;16.88;55.41
60897;BME280;46749;32.932;-117.130;2023-04-25T09:42:25;101145.75;;;16.88;55.13
60897;BME280;46749;32.932;-117.130;2023-04-25T09:44:54;101144.88;;;16.87;55.25
60897;BME280;46749;32.932;-117.130;2023-04-25T09:47:23;101148.34;;;16.86;55.61
60897;BME280;46749;32.932;-117.130;2023-04-25T09:49:51;101149.22;;;16.85;55.30
60897;BME280;46749;32.932;-117.130;2023-04-25T09:52:20;101134.28;;;16.84;55.30
60897;BME280;46749;32.932;-117.130;2023-04-25T09:54:48;101129.03;;;16.83;55.31
60897;BME280;46749;32.932;-117.130;2023-04-25T09:57:24;101127.28;;;16.83;55.42
60897;BME280;46749;32.932;-117.130;2023-04-25T09:59:51;101113.31;;;16.84;55.43
60897;BME280;46749;32.932;-117.130;2023-04-25T10:02:22;101119.41;;;16.83;55.24
60897;BME280;46749;32.932;-117.130;2023-04-25T10:04:50;101114.16;;;16.82;55.24
60897;BME280;46749;32.932;-117.130;2023-04-25T10:07:19;101122.00;;;16.80;55.29
60897;BME280;46749;32.932;-117.130;2023-04-25T10:09:49;101122.88;;;16.79;55.39
60897;BME280;46749;32.932;-117.130;2023-04-25T10:12:19;101118.44;;;16.78;55.63
60897;BME280;46749;32.932;-117.130;2023-04-25T10:14:46;101121.06;;;16.78;55.33
60897;BME280;46749;32.932;-117.130;2023-04-25T10:17:12;101128.94;;;16.78;55.31
60897;BME280;46749;32.932;-117.130;2023-04-25T10:19:40;101121.06;;;16.77;55.24
60897;BME280;46749;32.932;-117.130;2023-04-25T10:22:46;101124.53;;;16.76;55.34
60897;BME280;46749;32.932;-117.130;2023-04-25T10:25:06;101127.16;;;16.76;55.19
60897;BME280;46749;32.932;-117.130;2023-04-25T10:27:34;101132.41;;;16.74;55.34
60897;BME280;46749;32.932;-117.130;2023-04-25T10:32:32;101129.78;;;16.76;55.25
60897;BME280;46749;32.932;-117.130;2023-04-25T10:35:11;101128.03;;;16.76;55.36
60897;BME280;46749;32.932;-117.130;2023-04-25T10:37:37;101131.56;;;16.77;55.26
60897;BME280;46749;32.932;-117.130;2023-04-25T10:40:10;101127.16;;;16.74;55.29
60897;BME280;46749;32.932;-117.130;2023-04-25T10:42:36;101127.16;;;16.74;55.40
60897;BME280;46749;32.932;-117.130;2023-04-25T10:45:06;101129.78;;;16.74;55.28
60897;BME280;46749;32.932;-117.130;2023-04-25T10:47:36;101135.00;;;16.73;55.14
60897;BME280;46749;32.932;-117.130;2023-04-25T10:50:09;101135.81;;;16.71;55.27
60897;BME280;46749;32.932;-117.130;2023-04-25T10:52:38;101126.25;;;16.72;55.27
60897;BME280;46749;32.932;-117.130;2023-04-25T10:55:06;101130.56;;;16.71;55.40
60897;BME280;46749;32.932;-117.130;2023-04-25T10:57:45;101120.06;;;16.70;55.35
60897;BME280;46749;32.932;-117.130;2023-04-25T11:00:20;101124.41;;;16.69;55.32
60897;BME280;46749;32.932;-117.130;2023-04-25T11:02:57;101128.75;;;16.69;55.21
60897;BME280;46749;32.932;-117.130;2023-04-25T11:05:33;101120.88;;;16.67;55.26
60897;BME280;46749;32.932;-117.130;2023-04-25T11:08:00;101121.75;;;16.68;55.31
60897;BME280;46749;32.932;-117.130;2023-04-25T11:10:30;101119.13;;;16.68;55.42
60897;BME280;46749;32.932;-117.130;2023-04-25T11:13:01;101108.66;;;16.68;55.23
60897;BME280;46749;32.932;-117.130;2023-04-25T11:15:27;101106.03;;;16.68;55.15
60897;BME280;46749;32.932;-117.130;2023-04-25T11:17:55;101106.03;;;16.68;55.52
60897;BME280;46749;32.932;-117.130;2023-04-25T11:20:25;101106.00;;;16.66;55.26
60897;BME280;46749;32.932;-117.130;2023-04-25T11:22:53;101111.25;;;16.66;55.30
60897;BME280;46749;32.932;-117.130;2023-04-25T11:25:23;101115.63;;;16.66;55.28
60897;BME280;46749;32.932;-117.130;2023-04-25T11:27:54;101107.69;;;16.64;55.31
60897;BME280;46749;32.932;-117.130;2023-04-25T11:30:24;101112.91;;;16.63;55.44
60897;BME280;46749;32.932;-117.130;2023-04-25T11:32:50;101109.44;;;16.64;55.42
60897;BME280;46749;32.932;-117.130;2023-04-25T11:35:18;101115.53;;;16.63;55.38
60897;BME280;46749;32.932;-117.130;2023-04-25T11:37:45;101112.03;;;16.62;55.13
60897;BME280;46749;32.932;-117.130;2023-04-25T11:40:11;101113.78;;;16.62;55.11
60897;BME280;46749;32.932;-117.130;2023-04-25T11:42:39;101115.53;;;16.61;55.32
60897;BME280;46749;32.932;-117.130;2023-04-25T11:45:09;101111.16;;;16.62;55.23
60897;BME280;46749;32.932;-117.130;2023-04-25T11:47:37;101112.91;;;16.63;55.11
60897;BME280;46749;32.932;-117.130;2023-04-25T11:50:05;101116.41;;;16.62;55.34
60897;BME280;46749;32.932;-117.130;2023-04-25T11:52:40;101119.88;;;16.61;55.32
60897;BME280;46749;32.932;-117.130;2023-04-25T11:55:18;101119.88;;;16.61;55.38
60897;BME280;46749;32.932;-117.130;2023-04-25T11:57:46;101121.63;;;16.60;55.17
60897;BME280;46749;32.932;-117.130;2023-04-25T12:00:16;101116.34;;;16.59;55.25
60897;BME280;46749;32.932;-117.130;2023-04-25T12:02:47;101115.50;;;16.60;55.26
60897;BME280;46749;32.932;-117.130;2023-04-25T12:05:15;101122.47;;;16.59;55.27
60897;BME280;46749;32.932;-117.130;2023-04-25T12:07:42;101118.06;;;16.57;55.25
60897;BME280;46749;32.932;-117.130;2023-04-25T12:10:10;101114.56;;;16.56;55.18
60897;BME280;46749;32.932;-117.130;2023-04-25T12:12:38;101115.41;;;16.55;55.21
60897;BME280;46749;32.932;-117.130;2023-04-25T12:15:22;101115.41;;;16.55;55.29
60897;BME280;46749;32.932;-117.130;2023-04-25T12:17:50;101121.53;;;16.56;55.26
60897;BME280;46749;32.932;-117.130;2023-04-25T12:20:23;101123.28;;;16.57;55.33
60897;BME280;46749;32.932;-117.130;2023-04-25T12:22:50;101128.53;;;16.57;55.29
60897;BME280;46749;32.932;-117.130;2023-04-25T12:25:42;101115.41;;;16.55;55.36
60897;BME280;46749;32.932;-117.130;2023-04-25T12:28:21;101111.94;;;16.56;55.44
60897;BME280;46749;32.932;-117.130;2023-04-25T12:31:06;101109.28;;;16.55;55.29